Portada
METAR-TAF:

METAR-TAF

Aeroports :

Chiang Mai, Tailàndia

latitud: 18-47N, longitud: 098-59E, altitud: 312 m

Observació

L'informe es va fer fa 15 minuts, a les 03:30 UTC
Vent 2 kt amb direcció variable
Temperatura 28°C
Humitat 58%
Pressió 1019 hPa
Visibilitat 10 km o més
Escasses núvols a una alçada de 3500 ft

METAR: VTCC 210330Z VRB02KT 9999 FEW035 28/19 Q1019 NOSIG

Hora: 10:45 (03:45 UTC)

Pronòstic

L'informe es va fer fa 4 hores i 45 minuts, a les 23:00 UTC
Pronòstic vàlid del 21 a les 00 UTC al 22 a les 06 UTC
Vent 5 kt del Sud/Sud-Est
Visibilitat 10 km o més
Escasses núvols a una alçada de 3500 ft

TAF: VTCC 202300Z 2100/2206 16005KT 9999 FEW035

Observacions i pronòstics meteorològics de més de 4000 aeroports (METAR i TAF).

Les estacions disponibles són els punts grocs i vermells al mapa.

Posi el ratolí al punt desitjat per veure el nom de l'estació.

Feu clic per veure les observacions i els pronòstics meteorològics.

Per canviar el mapa: feu clic els botons verds amb una creu de color negre per apropar; al botó verd amb un guió per allunyar la imatge; o en les fletxes verdes per a mapes adjacents.


METAR-TAF: